|
公历农历对照

机场天气预报 (TAF)

机场天气预报 (TAF) 载述关于某个机场在预测期内预料会出现的气象要素。

香港天文台在 19 年 08 月 22 日 01 时 00 分最新发出的香港国际机场天气预报

TAF VHHH 211700Z 2118/2224 VRB05KT 9999 FEW030 TX33/2206Z TN27/2122Z TN27/2222Z BECMG 2203/2205 26010KT BECMG 2209/2211 VRB05KT TEMPO 2211/2215 12010KT=

(下次更新时间:19年08月22日07时00分)

机场天气预报电码经解码后:-

香港天文台发出 2019 年 08 月 21 日 18 协调世界时 至 2019 年 08 月 22 日 24 协调世界时 的机场天气预报:
 

时间(协调世界时) 能见度 天气状况 云层 云层高度
2019 年 08 月 21 日 18 时 至 2019 年 08 月 22 日 03 时 5 海里/小时 (风向不定) 10 公里以上 无重要天气状况
1-2
3000 呎
2019 年 08 月 22 日 03 时 至 05 时 期间逐渐转变为 西风 (260 o) 10 海里/小时 10 公里以上 无重要天气状况
1-2
3000 呎
2019 年 08 月 22 日 09 时 至 11 时 期间逐渐转变为 5 海里/小时 (风向不定) 10 公里以上 无重要天气状况
1-2
3000 呎
2019 年 08 月 22 日 11 时 至 15 时 期间间中 东南偏东风 (120 o) 10 海里/小时 10 公里以上 无重要天气状况
1-2
3000 呎

时间(协调世界时) 气温
2019 年 08 月 22 日 06 时
最高33 oC
2019 年 08 月 21 日 22 时
最低27 oC
2019 年 08 月 22 日 22 时
最低27 oC

份: 云层是以估计天空被云遮蔽之总面积来评定。把天空分为八份,1 份即是八份之一的天空被云遮蔽,2 份即是八份之二的天空被云遮蔽,如此类推。
  0 份 = 天朗气清,1-2 份 = 稀薄云层,3-4 份 = 零散云层,5-7 份 = 疏松云层,8 份 = 天色阴暗。
若想进一步了解机场天气预报(TAF)的编码,请参看剖析TAF电码的意义
若想进一步了解云,请参看香港常见的云
 
香港国际机场航空天气报告资料 本港地区航空天气预报
 
版权及声明